createdAt,value
2018-04-15T00:02:01.705Z,10.30
2018-04-15T00:04:29.940Z,10.10
2018-04-15T00:06:58.134Z,10.10
2018-04-15T00:09:26.298Z,9.90
2018-04-15T00:11:54.461Z,9.80
2018-04-15T00:14:22.938Z,9.80
2018-04-15T00:16:51.113Z,9.90
2018-04-15T00:19:19.338Z,9.90
2018-04-15T00:21:47.497Z,10.00
2018-04-15T00:24:15.747Z,10.10
2018-04-15T00:26:43.939Z,10.00
2018-04-15T00:29:12.144Z,9.90
2018-04-15T00:31:40.310Z,9.90
2018-04-15T00:34:08.554Z,9.80
2018-04-15T00:36:36.722Z,9.70
2018-04-15T00:39:05.685Z,9.60
2018-04-15T00:41:34.614Z,9.60
2018-04-15T00:44:03.092Z,9.50
2018-04-15T00:46:31.258Z,9.60
2018-04-15T00:48:59.438Z,9.70
2018-04-15T00:51:27.614Z,9.80
2018-04-15T00:54:09.338Z,9.90
2018-04-15T00:56:37.511Z,9.90
2018-04-15T00:59:05.678Z,9.80
2018-04-15T01:01:33.828Z,9.70
2018-04-15T01:04:02.006Z,9.80
2018-04-15T01:06:30.149Z,9.70
2018-04-15T01:08:59.091Z,9.30
2018-04-15T01:11:27.237Z,9.20
2018-04-15T01:13:56.165Z,9.10
2018-04-15T01:16:24.306Z,9.10
2018-04-15T01:18:52.479Z,9.30
2018-04-15T01:21:20.614Z,9.30
2018-04-15T01:23:49.665Z,9.20
2018-04-15T01:26:17.815Z,9.20
2018-04-15T01:28:46.752Z,8.80
2018-04-15T01:31:14.949Z,8.80
2018-04-15T01:33:44.095Z,8.70
2018-04-15T01:36:12.259Z,8.70
2018-04-15T01:38:40.398Z,8.80
2018-04-15T01:41:08.641Z,8.70
2018-04-15T01:43:37.599Z,8.70
2018-04-15T01:46:05.769Z,8.70
2018-04-15T01:48:33.911Z,8.50
2018-04-15T01:51:02.171Z,8.40
2018-04-15T01:53:31.119Z,8.30
2018-04-15T01:55:59.292Z,8.30
2018-04-15T01:58:27.443Z,8.40
2018-04-15T02:00:56.378Z,8.50
2018-04-15T02:03:24.563Z,8.40
2018-04-15T02:05:52.801Z,8.50
2018-04-15T02:08:21.706Z,8.30
2018-04-15T02:10:49.916Z,8.30
2018-04-15T02:13:19.529Z,8.20
2018-04-15T02:15:47.685Z,8.00
2018-04-15T02:18:15.872Z,8.10
2018-04-15T02:20:44.139Z,8.10
2018-04-15T02:23:12.336Z,8.10
2018-04-15T02:25:40.486Z,8.10
2018-04-15T02:28:08.676Z,8.00
2018-04-15T02:30:36.842Z,7.90
2018-04-15T02:33:05.795Z,8.00
2018-04-15T02:35:33.974Z,8.00
2018-04-15T02:38:02.123Z,8.10
2018-04-15T02:40:31.059Z,8.10
2018-04-15T02:43:00.022Z,8.00
2018-04-15T02:45:28.964Z,7.90
2018-04-15T02:47:57.106Z,7.90
2018-04-15T02:50:25.307Z,8.00
2018-04-15T02:52:54.411Z,7.80
2018-04-15T02:55:22.570Z,7.70
2018-04-15T02:57:50.752Z,7.80
2018-04-15T03:00:18.923Z,8.00
2018-04-15T03:02:47.878Z,8.00
2018-04-15T03:05:16.037Z,8.00
2018-04-15T03:07:44.970Z,7.90
2018-04-15T03:10:13.123Z,7.90
2018-04-15T03:12:41.434Z,7.80
2018-04-15T03:15:09.606Z,7.70
2018-04-15T03:17:37.795Z,7.80
2018-04-15T03:20:05.930Z,7.90
2018-04-15T03:22:34.230Z,8.00
2018-04-15T03:25:02.406Z,7.90
2018-04-15T03:27:30.564Z,8.10
2018-04-15T03:29:58.717Z,8.10
2018-04-15T03:32:26.899Z,7.90
2018-04-15T03:34:55.042Z,8.00
2018-04-15T03:37:24.097Z,7.70
2018-04-15T03:39:52.275Z,7.70
2018-04-15T03:42:21.243Z,7.70
2018-04-15T03:44:49.391Z,7.70
2018-04-15T03:47:18.329Z,7.60
2018-04-15T03:49:46.474Z,7.60
2018-04-15T03:52:15.470Z,7.60
2018-04-15T03:54:43.618Z,7.50
2018-04-15T03:57:12.638Z,7.50
2018-04-15T03:59:40.785Z,7.50
2018-04-15T04:02:09.812Z,7.40
2018-04-15T04:04:37.970Z,7.40
2018-04-15T04:07:06.179Z,7.40
2018-04-15T04:09:34.353Z,7.50
2018-04-15T04:12:03.327Z,7.30
2018-04-15T04:14:31.485Z,7.20
2018-04-15T04:16:59.625Z,7.10
2018-04-15T04:19:39.963Z,7.10
2018-04-15T04:25:26.391Z,7.00
2018-04-15T04:27:54.558Z,7.30
2018-04-15T04:30:22.708Z,7.40
2018-04-15T04:32:51.699Z,7.20
2018-04-15T04:35:19.879Z,7.20
2018-04-15T04:37:48.042Z,7.20
2018-04-15T04:40:16.200Z,7.10
2018-04-15T04:42:45.214Z,7.10
2018-04-15T04:45:13.375Z,7.10
2018-04-15T04:47:41.545Z,6.90
2018-04-15T04:50:09.712Z,6.80
2018-04-15T04:52:38.726Z,6.90
2018-04-15T04:55:06.874Z,6.80
2018-04-15T04:57:35.922Z,6.80
2018-04-15T05:00:04.066Z,6.80
2018-04-15T05:02:33.197Z,6.80
2018-04-15T05:05:01.339Z,6.70
2018-04-15T05:07:29.502Z,6.90
2018-04-15T05:09:57.712Z,6.80
2018-04-15T05:12:26.702Z,6.90
2018-04-15T05:14:54.874Z,6.90
2018-04-15T05:17:23.026Z,7.00
2018-04-15T05:19:51.195Z,7.00
2018-04-15T05:22:20.232Z,7.00
2018-04-15T05:24:48.398Z,7.00
2018-04-15T05:27:16.559Z,7.00
2018-04-15T05:29:44.739Z,7.10
2018-04-15T05:32:13.721Z,7.40
2018-04-15T05:34:41.892Z,7.40
2018-04-15T05:37:10.051Z,7.50
2018-04-15T05:39:38.222Z,7.60
2018-04-15T05:42:07.219Z,7.70
2018-04-15T05:44:35.430Z,7.80
2018-04-15T05:47:03.598Z,7.90
2018-04-15T05:49:31.765Z,7.90
2018-04-15T05:52:00.777Z,8.10
2018-04-15T05:54:29.048Z,8.00
2018-04-15T05:56:57.194Z,8.20
2018-04-15T05:59:25.371Z,8.30
2018-04-15T06:01:54.838Z,8.30
2018-04-15T06:04:23.778Z,8.30
2018-04-15T06:06:51.967Z,8.30
2018-04-15T06:09:20.234Z,8.40
2018-04-15T06:11:49.200Z,8.60
2018-04-15T06:14:17.402Z,8.60
2018-04-15T06:16:45.591Z,8.70
2018-04-15T06:19:13.766Z,8.70
2018-04-15T06:21:42.733Z,8.80
2018-04-15T06:24:10.917Z,8.80
2018-04-15T06:26:39.075Z,8.90
2018-04-15T06:29:07.227Z,9.00
2018-04-15T06:31:36.261Z,9.20
2018-04-15T06:34:04.438Z,9.10
2018-04-15T06:36:32.717Z,9.30
2018-04-15T06:39:00.876Z,9.30
2018-04-15T06:41:29.985Z,9.40
2018-04-15T06:43:58.150Z,9.30
2018-04-15T06:46:26.350Z,9.60
2018-04-15T06:48:54.610Z,9.60
2018-04-15T06:51:23.638Z,9.60
2018-04-15T06:53:51.789Z,9.60
2018-04-15T06:56:19.966Z,9.60
2018-04-15T06:58:48.129Z,9.80
2018-04-15T07:01:16.319Z,9.80
2018-04-15T07:03:44.465Z,9.90
2018-04-15T07:06:12.964Z,9.70
2018-04-15T07:08:41.190Z,9.80
2018-04-15T07:11:09.382Z,10.00
2018-04-15T07:13:37.542Z,9.90
2018-04-15T07:16:05.731Z,10.00
2018-04-15T07:18:33.882Z,10.10
2018-04-15T07:21:02.918Z,10.40
2018-04-15T07:23:31.069Z,10.40
2018-04-15T07:25:59.267Z,10.50
2018-04-15T07:28:27.430Z,10.60
2018-04-15T07:30:55.612Z,10.70
2018-04-15T07:33:24.543Z,11.00
2018-04-15T07:35:53.514Z,11.10
2018-04-15T07:38:21.658Z,11.10
2018-04-15T07:40:49.859Z,11.10
2018-04-15T07:43:18.031Z,11.30
2018-04-15T07:45:46.182Z,11.30
2018-04-15T07:48:14.371Z,11.20
2018-04-15T07:50:42.529Z,11.50
2018-04-15T07:53:10.724Z,11.90
2018-04-15T07:55:38.881Z,12.20
2018-04-15T07:58:07.071Z,12.20
2018-04-15T08:00:35.235Z,12.40
2018-04-15T08:03:03.431Z,12.50
2018-04-15T08:05:31.601Z,12.60
2018-04-15T08:07:59.779Z,12.60
2018-04-15T08:10:28.745Z,12.40
2018-04-15T08:12:56.935Z,12.40
2018-04-15T08:15:25.120Z,12.20
2018-04-15T08:17:53.323Z,12.10
2018-04-15T08:20:21.515Z,12.00
2018-04-15T08:22:49.719Z,12.20
2018-04-15T08:25:17.899Z,12.60
2018-04-15T08:27:46.083Z,12.60
2018-04-15T08:30:14.262Z,12.60
2018-04-15T08:32:42.455Z,12.80
2018-04-15T08:35:10.642Z,13.10
2018-04-15T08:37:38.842Z,13.30
2018-04-15T08:40:07.035Z,13.40
2018-04-15T08:42:35.240Z,13.30
2018-04-15T08:45:03.419Z,13.40
2018-04-15T08:47:31.627Z,13.60
2018-04-15T08:49:59.836Z,14.00
2018-04-15T08:52:28.036Z,14.20
2018-04-15T08:54:56.217Z,13.70
2018-04-15T08:57:24.419Z,13.80
2018-04-15T08:59:52.614Z,13.80
2018-04-15T09:02:20.806Z,13.70
2018-04-15T09:04:48.999Z,13.60
2018-04-15T09:07:17.188Z,13.40
2018-04-15T09:09:46.165Z,13.40
2018-04-15T09:12:14.333Z,13.40
2018-04-15T09:14:42.538Z,13.30
2018-04-15T09:17:11.481Z,13.30
2018-04-15T09:19:39.697Z,13.30
2018-04-15T09:22:07.878Z,13.30
2018-04-15T09:24:36.860Z,13.70
2018-04-15T09:27:05.049Z,13.70
2018-04-15T09:29:33.312Z,13.80
2018-04-15T09:32:01.464Z,13.90
2018-04-15T09:34:29.664Z,14.00
2018-04-15T09:36:58.616Z,14.40
2018-04-15T09:39:26.870Z,14.40
2018-04-15T09:41:55.139Z,14.60
2018-04-15T09:44:23.346Z,14.80
2018-04-15T09:46:51.540Z,15.10
2018-04-15T09:49:20.544Z,15.40
2018-04-15T09:51:48.737Z,15.30
2018-04-15T09:54:17.698Z,15.40
2018-04-15T09:56:45.883Z,15.40
2018-04-15T09:59:14.133Z,15.30
2018-04-15T10:01:42.276Z,15.40
2018-04-15T10:04:10.478Z,15.30
2018-04-15T10:06:38.671Z,15.40
2018-04-15T10:09:06.895Z,15.20
2018-04-15T10:11:35.076Z,15.20
2018-04-15T10:14:03.285Z,15.20
2018-04-15T10:16:31.467Z,15.10
2018-04-15T10:19:00.282Z,15.00
2018-04-15T10:21:28.511Z,14.90
2018-04-15T10:23:56.734Z,14.90
2018-04-15T10:26:25.678Z,15.00
2018-04-15T10:28:53.899Z,15.00
2018-04-15T10:31:22.874Z,15.80
2018-04-15T10:33:51.067Z,15.80
2018-04-15T10:36:20.041Z,15.50
2018-04-15T10:38:49.011Z,15.50
2018-04-15T10:41:17.240Z,15.50
2018-04-15T10:43:46.191Z,16.00
2018-04-15T10:46:14.398Z,16.00
2018-04-15T10:48:42.602Z,16.30
2018-04-15T10:51:10.833Z,16.50
2018-04-15T10:53:39.020Z,16.30
2018-04-15T10:56:08.003Z,16.90
2018-04-15T10:58:36.186Z,16.90
2018-04-15T11:01:05.165Z,17.60
2018-04-15T11:03:33.347Z,17.50
2018-04-15T11:06:01.554Z,17.80
2018-04-15T11:08:29.767Z,17.60
2018-04-15T11:10:57.974Z,17.30
2018-04-15T11:13:26.939Z,17.20
2018-04-15T11:15:55.909Z,17.80
2018-04-15T11:18:24.132Z,17.80
2018-04-15T11:20:52.346Z,18.20
2018-04-15T11:23:20.523Z,18.30
2018-04-15T11:25:48.735Z,18.60
2018-04-15T11:28:16.947Z,18.60
2018-04-15T11:30:45.917Z,18.30
2018-04-15T11:33:14.113Z,18.30
2018-04-15T11:35:42.368Z,18.80
2018-04-15T11:38:10.555Z,19.00
2018-04-15T11:40:39.522Z,19.50
2018-04-15T11:43:07.823Z,19.40
2018-04-15T11:45:36.038Z,19.50
2018-04-15T11:48:04.241Z,19.80
2018-04-15T11:50:33.235Z,19.50
2018-04-15T11:53:01.453Z,19.40
2018-04-15T11:55:30.407Z,19.50
2018-04-15T11:57:58.644Z,19.50
2018-04-15T12:00:26.836Z,19.50
2018-04-15T12:02:55.038Z,19.60
2018-04-15T12:05:23.229Z,19.50
2018-04-15T12:07:52.201Z,18.60
2018-04-15T12:10:20.396Z,18.60
2018-04-15T12:12:48.611Z,18.80
2018-04-15T12:15:16.798Z,18.80
2018-04-15T12:17:45.008Z,19.00
2018-04-15T12:20:13.182Z,18.90
2018-04-15T12:22:41.391Z,19.20
2018-04-15T12:25:10.334Z,19.50
2018-04-15T12:27:38.550Z,19.40
2018-04-15T12:30:07.512Z,19.80
2018-04-15T12:32:35.809Z,19.70
2018-04-15T12:35:03.988Z,19.90
2018-04-15T12:37:32.186Z,19.80
2018-04-15T12:40:00.375Z,20.00
2018-04-15T12:42:28.596Z,20.10
2018-04-15T12:44:56.783Z,20.40
2018-04-15T12:47:25.760Z,20.40
2018-04-15T12:49:53.955Z,20.40
2018-04-15T12:52:23.063Z,20.40
2018-04-15T12:54:52.019Z,20.20
2018-04-15T12:57:21.025Z,20.00
2018-04-15T12:59:49.219Z,19.90
2018-04-15T13:02:18.185Z,19.70
2018-04-15T13:04:46.371Z,19.70
2018-04-15T13:07:14.575Z,19.50
2018-04-15T13:09:42.754Z,19.40
2018-04-15T13:12:10.962Z,19.10
2018-04-15T13:14:39.121Z,18.70
2018-04-15T13:17:07.318Z,18.40
2018-04-15T13:19:35.501Z,18.40
2018-04-15T13:22:03.679Z,18.40
2018-04-15T13:24:31.882Z,18.60
2018-04-15T13:27:00.813Z,18.50
2018-04-15T13:29:29.030Z,18.50
2018-04-15T13:31:57.207Z,18.60
2018-04-15T13:34:26.195Z,19.00
2018-04-15T13:36:54.406Z,18.90
2018-04-15T13:39:22.719Z,19.00
2018-04-15T13:41:50.913Z,19.10
2018-04-15T13:44:19.132Z,19.10
2018-04-15T13:46:47.814Z,18.90
2018-04-15T13:49:16.873Z,18.80
2018-04-15T13:51:45.044Z,18.90
2018-04-15T13:54:13.234Z,18.80
2018-04-15T13:56:42.179Z,18.80
2018-04-15T13:59:10.390Z,18.80
2018-04-15T14:01:39.347Z,18.90
2018-04-15T14:04:07.558Z,18.90
2018-04-15T14:06:36.522Z,19.10
2018-04-15T14:09:04.820Z,19.10
2018-04-15T14:11:33.669Z,19.20
2018-04-15T14:14:01.886Z,19.10
2018-04-15T14:16:30.107Z,19.20
2018-04-15T14:18:58.314Z,19.40
2018-04-15T14:21:26.510Z,19.50
2018-04-15T14:23:55.492Z,19.50
2018-04-15T14:26:24.436Z,19.80
2018-04-15T14:28:52.976Z,19.70
2018-04-15T14:31:21.950Z,20.60
2018-04-15T14:33:50.219Z,20.50
2018-04-15T14:36:18.427Z,20.90
2018-04-15T14:38:46.615Z,21.20
2018-04-15T14:41:14.817Z,21.40
2018-04-15T14:43:43.006Z,21.60
2018-04-15T14:46:11.285Z,21.70
2018-04-15T14:48:39.487Z,21.80
2018-04-15T14:51:08.475Z,22.00
2018-04-15T14:53:36.641Z,22.00
2018-04-15T14:56:04.847Z,21.70
2018-04-15T14:58:33.034Z,21.80
2018-04-15T15:01:01.243Z,24.90
2018-04-15T15:03:29.422Z,26.70
2018-04-15T15:05:57.627Z,26.40
2018-04-15T15:08:26.570Z,25.60
2018-04-15T15:10:54.785Z,25.60
2018-04-15T15:13:23.736Z,26.50
2018-04-15T15:15:51.943Z,26.50
2018-04-15T15:18:20.135Z,26.70
2018-04-15T15:20:49.107Z,27.80
2018-04-15T15:23:17.295Z,27.70
2018-04-15T15:25:46.259Z,29.50
2018-04-15T15:28:14.476Z,29.40
2018-04-15T15:30:42.635Z,30.80
2018-04-15T15:33:11.585Z,27.60
2018-04-15T15:35:39.818Z,27.50
2018-04-15T15:38:07.994Z,25.50
2018-04-15T15:40:36.194Z,24.20
2018-04-15T15:43:04.366Z,23.30
2018-04-15T15:45:32.579Z,22.50
2018-04-15T15:48:01.562Z,21.50
2018-04-15T15:50:29.739Z,21.50
2018-04-15T15:52:57.952Z,21.10
2018-04-15T15:55:26.249Z,21.00
2018-04-15T15:57:54.463Z,20.80
2018-04-15T16:00:22.651Z,20.50
2018-04-15T16:02:50.855Z,20.20
2018-04-15T16:05:19.141Z,20.00
2018-04-15T16:07:47.397Z,20.00
2018-04-15T16:10:16.214Z,19.70
2018-04-15T16:12:45.165Z,19.60
2018-04-15T16:15:13.644Z,19.50
2018-04-15T16:17:41.829Z,19.40
2018-04-15T16:20:10.783Z,19.30
2018-04-15T16:22:38.986Z,19.20
2018-04-15T16:25:08.667Z,19.00
2018-04-15T16:27:36.899Z,19.00
2018-04-15T16:30:05.074Z,18.90
2018-04-15T16:32:33.280Z,18.80
2018-04-15T16:35:01.485Z,18.80
2018-04-15T16:37:31.199Z,18.70
2018-04-15T16:39:59.385Z,18.70
2018-04-15T16:42:28.363Z,18.60
2018-04-15T16:44:56.699Z,18.60
2018-04-15T16:47:24.907Z,18.50
2018-04-15T16:49:54.603Z,18.30
2018-04-15T16:52:22.815Z,18.40
2018-04-15T16:54:51.082Z,18.40
2018-04-15T16:57:19.278Z,18.40
2018-04-15T16:59:47.534Z,18.30
2018-04-15T17:02:15.730Z,18.30
2018-04-15T17:04:43.963Z,18.30
2018-04-15T17:07:12.196Z,18.30
2018-04-15T17:09:40.425Z,18.20
2018-04-15T17:12:08.611Z,18.10
2018-04-15T17:14:36.875Z,18.10
2018-04-15T17:17:05.056Z,18.00
2018-04-15T17:19:33.326Z,18.00
2018-04-15T17:22:01.515Z,17.90
2018-04-15T17:24:29.770Z,17.80
2018-04-15T17:26:59.469Z,17.80
2018-04-15T17:29:27.678Z,17.70
2018-04-15T17:31:56.626Z,17.70
2018-04-15T17:34:24.943Z,17.70
2018-04-15T17:36:53.899Z,17.70
2018-04-15T17:39:22.198Z,17.60
2018-04-15T17:41:50.522Z,17.60
2018-04-15T17:44:18.859Z,17.40
2018-04-15T17:46:47.136Z,17.40
2018-04-15T17:49:15.416Z,17.40
2018-04-15T17:51:44.367Z,17.20
2018-04-15T17:54:12.571Z,17.20
2018-04-15T17:56:40.751Z,17.20
2018-04-15T17:59:09.722Z,17.10
2018-04-15T18:01:37.932Z,17.10
2018-04-15T18:04:06.160Z,17.20
2018-04-15T18:06:34.353Z,17.00
2018-04-15T18:09:02.563Z,16.80
2018-04-15T18:11:30.822Z,16.80
2018-04-15T18:13:59.116Z,17.10
2018-04-15T18:16:27.375Z,17.20
2018-04-15T18:18:56.354Z,16.60
2018-04-15T18:21:24.557Z,16.60
2018-04-15T18:23:52.795Z,16.20
2018-04-15T18:26:20.984Z,16.00
2018-04-15T18:28:49.198Z,15.90
2018-04-15T18:31:17.386Z,16.10
2018-04-15T18:33:45.707Z,16.00
2018-04-15T18:36:15.541Z,16.00
2018-04-15T18:38:44.530Z,15.90
2018-04-15T18:41:12.749Z,15.90
2018-04-15T18:43:42.005Z,15.80
2018-04-15T18:46:10.977Z,15.80
2018-04-15T18:48:39.178Z,15.80
2018-04-15T18:51:08.146Z,15.90
2018-04-15T18:53:36.390Z,15.90
2018-04-15T18:56:04.606Z,15.80
2018-04-15T18:58:34.302Z,15.60
2018-04-15T19:01:02.507Z,15.70
2018-04-15T19:03:30.876Z,15.60
2018-04-15T19:05:59.891Z,15.70
2018-04-15T19:08:28.251Z,15.60
2018-04-15T19:10:56.544Z,15.60
2018-04-15T19:13:24.750Z,15.70
2018-04-15T19:15:52.958Z,15.70
2018-04-15T19:18:21.153Z,15.60
2018-04-15T19:20:50.848Z,15.40
2018-04-15T19:23:19.127Z,15.40
2018-04-15T19:25:47.323Z,15.30
2018-04-15T19:28:15.575Z,15.20
2018-04-15T19:30:43.779Z,15.30
2018-04-15T19:33:11.991Z,15.50
2018-04-15T19:35:40.190Z,15.50
2018-04-15T19:38:08.378Z,15.50
2018-04-15T19:40:36.574Z,15.60
2018-04-15T19:43:04.890Z,15.60
2018-04-15T19:45:33.098Z,15.60
2018-04-15T19:48:01.278Z,15.60
2018-04-15T19:50:30.259Z,15.50
2018-04-15T19:52:58.507Z,15.50
2018-04-15T19:55:26.714Z,15.30
2018-04-15T19:57:54.891Z,15.30
2018-04-15T20:00:23.179Z,15.30
2018-04-15T20:02:51.563Z,15.20
2018-04-15T20:05:20.665Z,15.30
2018-04-15T20:07:48.819Z,15.30
2018-04-15T20:10:17.019Z,15.10
2018-04-15T20:12:45.247Z,15.00
2018-04-15T20:15:13.423Z,14.90
2018-04-15T20:17:41.711Z,14.90
2018-04-15T20:20:09.882Z,14.80
2018-04-15T20:22:38.166Z,14.90
2018-04-15T20:25:06.346Z,15.00
2018-04-15T20:27:34.539Z,15.00
2018-04-15T20:30:03.495Z,14.90
2018-04-15T20:32:31.763Z,14.80
2018-04-15T20:34:59.938Z,14.80
2018-04-15T20:37:28.214Z,14.90
2018-04-15T20:39:56.387Z,14.80
2018-04-15T20:42:25.411Z,14.80
2018-04-15T20:44:53.582Z,14.80
2018-04-15T20:47:21.761Z,14.80
2018-04-15T20:49:49.910Z,14.90
2018-04-15T20:52:18.931Z,14.60
2018-04-15T20:54:47.104Z,14.50
2018-04-15T20:57:15.280Z,14.30
2018-04-15T20:59:43.547Z,14.20
2018-04-15T21:02:12.651Z,14.20
2018-04-15T21:04:40.815Z,14.20
2018-04-15T21:07:08.988Z,14.30
2018-04-15T21:09:37.134Z,14.30
2018-04-15T21:12:06.146Z,14.20
2018-04-15T21:14:34.340Z,14.20
2018-04-15T21:17:02.618Z,14.20
2018-04-15T21:19:30.768Z,14.20
2018-04-15T21:21:59.774Z,14.00
2018-04-15T21:24:27.952Z,14.00
2018-04-15T21:26:56.159Z,14.00
2018-04-15T21:29:24.299Z,14.00
2018-04-15T21:31:53.259Z,13.80
2018-04-15T21:34:21.440Z,13.80
2018-04-15T21:36:49.600Z,13.90
2018-04-15T21:39:18.540Z,13.60
2018-04-15T21:41:47.607Z,13.60
2018-04-15T21:44:15.787Z,13.60
2018-04-15T21:46:43.955Z,13.60
2018-04-15T21:49:12.135Z,13.60
2018-04-15T21:51:41.127Z,13.60
2018-04-15T21:54:09.362Z,13.60
2018-04-15T21:56:37.475Z,13.60
2018-04-15T21:59:05.663Z,13.70
2018-04-15T22:01:34.630Z,13.70
2018-04-15T22:04:02.843Z,13.70
2018-04-15T22:06:30.989Z,13.60
2018-04-15T22:08:59.286Z,13.70
2018-04-15T22:11:40.272Z,13.70
2018-04-15T22:14:08.447Z,13.60
2018-04-15T22:16:36.600Z,13.60
2018-04-15T22:19:04.772Z,13.70
2018-04-15T22:21:33.942Z,13.70
2018-04-15T22:24:02.114Z,13.70
2018-04-15T22:26:30.274Z,13.60
2018-04-15T22:28:59.230Z,13.70
2018-04-15T22:31:28.210Z,13.70
2018-04-15T22:33:56.491Z,13.70
2018-04-15T22:36:24.667Z,13.70
2018-04-15T22:38:52.904Z,13.70
2018-04-15T22:41:21.093Z,13.80
2018-04-15T22:43:49.287Z,13.70
2018-04-15T22:46:17.450Z,13.70
2018-04-15T22:48:45.610Z,13.70
2018-04-15T22:51:14.730Z,13.70
2018-04-15T22:53:42.896Z,13.70
2018-04-15T22:56:11.072Z,13.70
2018-04-15T22:58:45.056Z,13.80
2018-04-15T23:01:14.803Z,13.60
2018-04-15T23:03:42.971Z,13.60
2018-04-15T23:06:11.157Z,13.50
2018-04-15T23:08:39.335Z,13.50
2018-04-15T23:11:08.311Z,13.70
2018-04-15T23:13:36.466Z,13.70
2018-04-15T23:16:04.660Z,13.60
2018-04-15T23:21:05.381Z,13.50
2018-04-15T23:23:33.543Z,13.40
2018-04-15T23:26:01.732Z,13.40
2018-04-15T23:28:29.943Z,13.50
2018-04-15T23:30:58.136Z,13.60
2018-04-15T23:33:26.386Z,13.60
2018-04-15T23:35:54.674Z,13.60
2018-04-15T23:38:22.948Z,13.60
2018-04-15T23:40:51.322Z,13.70
2018-04-15T23:43:19.474Z,13.60
2018-04-15T23:45:47.670Z,13.60
2018-04-15T23:48:15.841Z,13.60
2018-04-15T23:50:44.866Z,13.60
2018-04-15T23:53:13.125Z,13.50
2018-04-15T23:55:41.386Z,13.40
2018-04-15T23:58:09.547Z,13.40
